Página principal
METAR-TAF:

METAR-TAF

Aeroportos :

Russian Mission, Alasca, Estados Unidos

latitude: 61-46-30N, longitude: 161-19-10W, altura: 16 m

Observação actual do tempo

O boletim foi feito há 35 minutos, às 16:56 UTC
Vento 6 kt de sul
Temperatura 14°C
Humidade 94%
Pressão 1013 hPa
Visibilidade: 16.1 km
Encobertoa uma altura de 800 ft

METAR: PARS 251656Z AUTO 17006KT 10SM OVC008 14/13 A2990 RMK AO2 SLP126 T01440128 $

Hora: 09:31 (17:31 UTC)


TAF: em falta

Observações e previsões do tempo de mais de 4000 aeroportos (mensagens METAR e TAF).

As estações disponíveis são os pontos amarelos e vermelhos sobre o mapa.

Mova o rato sobre o mapa para ver o nome da estação.

Depois clique no ponto para visualizar as observações e previsões meteorológicas.

Para alterar o mapa : clique nos botões verdes com uma cruz preta para aumentar o zoom; no botão verde com uma pitada de zoom; ou nas setas verdes para mapas adjacentes.


METAR-TAF: